Geyserville, CA

5:06 AM PDT on October 21, 2014 (GMT -0700)
Ukiah Municipal | Change Station
CLOSE
Current Station
Airport
Location: Ukiah,
Elevation: 614 ft
Nearby Weather Stations

Elev 614 ft 39.13 °N, 123.20 °W | Updated 3 minutes ago

Clear
Clear
46 °F
Feels Like 46 °F
N
0
Wind Variable Wind from North

Today
High -- | Low -- °F
--% Chance of Precip.
Yesterday
High -- | Low -- °F
Precip. -- in
7:26 AM 6:24 PM
Waning Crescent, 6% visible
Pressure 30.11 in
Visibility 1.8 miles
Clouds Overcast 900 ft
Dew Point 45 °F
Humidity 96%
Rainfall 0.00 in
Snow Depth Not available.
UV 0 out of 12
Pollen 3.70 out of 12
Air Quality Not available.
Flu Activity Sporadic
SPECI KUKI 211203Z AUTO 00000KT 1 3/4SM BR OVC009 08/07 A3011 RMK AO2 CIG 006V011 T00780072

More Conditions Fewer Conditions

Pressure 30.11 in
Visibility 1.8 miles
Clouds Overcast 900 ft
Dew Point 45 °F
Humidity 96%
Rainfall 0.00 in
Snow Depth Not available.
UV 0 out of 12
Pollen 3.70 out of 12
Air Quality Not available.
Flu Activity Sporadic
SPECI KUKI 211203Z AUTO 00000KT 1 3/4SM BR OVC009 08/07 A3011 RMK AO2 CIG 006V011 T00780072

More Conditions Fewer Conditions

10-Day Weather Forecast

Almanac

Astronomy

Oct. 21, 2014 Rise Set
Actual Time 7:26 AM PDT 6:24 PM PDT
Civil Twilight 6:59 AM PDT 6:51 PM PDT
Nautical Twilight 6:28 AM PDT 7:22 PM PDT
Astronomical Twilight 5:58 AM PDT 7:53 PM PDT
Moon 5:17 AM PDT 5:20 PM PDT
Length of Visible Light 11h 51m
Length of Day
10h 57m
Tomorrow will be 2m 21s shorter.
Waning Crescent, 6% of the Moon is Illuminated
Today
Waning Crescent
Oct 23
New
Oct 30
First Quarter
Nov 6
Full
Nov 14
Last Quarter

Today's Extremes

State Highs State Lows

Community

WunderPhotos

Upload Photos

1,763,640 photos uploaded!

Nearby

Air Quality

  Air Quality AQ Index Pollutant
Tuesday Good
PM2.5
Wednesday Good
PM2.5
Thursday Good
PM2.5
Friday Good
PM2.5
Saturday Good
PM2.5

Snow Depth

Station Depth Elevation
CSS Lab 1 in 6900 ft
Squaw Valley 0 in 8200 ft
Ward Creek #3 1 in 6750 ft
Independence Lake 1 in 8450 ft
Independence Camp 0 in 7000 ft

Earthquake Activity

City Distance Mag. Time & Date
Rio Dell, California 133 miles 4.2 7:24 AM PDT
2014-10-19
East Foothills, California 111 miles 2.6 8:16 AM PDT
2014-10-18
Minimum magnitude displayed is 2.5.

Coastal Water Temperatures

Place Temperature
Point Reyes, CA 60.1 °F
Arena Cove, CA 60.1 °F
San Francisco, CA 62.1 °F
Richmond, CA 64.0 °F

Nearby Weather Stations